sensor_id;sensor_type;location;lat;lon;timestamp;temperature;humidity
20526;DHT22;10421;49.142;9.232;2023-12-28T00:00:50;8.50;97.70
20526;DHT22;10421;49.142;9.232;2023-12-28T00:03:17;8.50;97.90
20526;DHT22;10421;49.142;9.232;2023-12-28T00:05:44;8.50;98.00
20526;DHT22;10421;49.142;9.232;2023-12-28T00:08:10;8.50;98.10
20526;DHT22;10421;49.142;9.232;2023-12-28T00:10:38;8.50;98.40
20526;DHT22;10421;49.142;9.232;2023-12-28T00:13:05;8.40;98.00
20526;DHT22;10421;49.142;9.232;2023-12-28T00:15:32;8.40;98.10
20526;DHT22;10421;49.142;9.232;2023-12-28T00:17:58;8.40;98.10
20526;DHT22;10421;49.142;9.232;2023-12-28T00:20:25;8.40;98.00
20526;DHT22;10421;49.142;9.232;2023-12-28T00:22:52;8.40;98.00
20526;DHT22;10421;49.142;9.232;2023-12-28T00:25:18;8.40;98.10
20526;DHT22;10421;49.142;9.232;2023-12-28T00:27:46;8.30;98.00
20526;DHT22;10421;49.142;9.232;2023-12-28T00:30:13;8.30;98.00
20526;DHT22;10421;49.142;9.232;2023-12-28T00:32:42;8.30;98.00
20526;DHT22;10421;49.142;9.232;2023-12-28T00:35:11;8.30;98.20
20526;DHT22;10421;49.142;9.232;2023-12-28T00:37:39;8.20;98.40
20526;DHT22;10421;49.142;9.232;2023-12-28T00:40:06;8.20;98.50
20526;DHT22;10421;49.142;9.232;2023-12-28T00:42:33;8.20;98.40
20526;DHT22;10421;49.142;9.232;2023-12-28T00:45:01;8.30;98.40
20526;DHT22;10421;49.142;9.232;2023-12-28T00:47:28;8.20;98.20
20526;DHT22;10421;49.142;9.232;2023-12-28T00:49:55;8.30;98.10
20526;DHT22;10421;49.142;9.232;2023-12-28T00:52:21;8.20;97.90
20526;DHT22;10421;49.142;9.232;2023-12-28T00:54:48;8.20;98.00
20526;DHT22;10421;49.142;9.232;2023-12-28T00:57:15;8.20;97.90
20526;DHT22;10421;49.142;9.232;2023-12-28T00:59:41;8.20;97.80
20526;DHT22;10421;49.142;9.232;2023-12-28T01:02:10;8.20;97.70
20526;DHT22;10421;49.142;9.232;2023-12-28T01:04:37;8.20;97.70
20526;DHT22;10421;49.142;9.232;2023-12-28T01:07:03;8.10;97.60
20526;DHT22;10421;49.142;9.232;2023-12-28T01:09:31;7.80;97.90
20526;DHT22;10421;49.142;9.232;2023-12-28T01:11:58;7.90;98.00
20526;DHT22;10421;49.142;9.232;2023-12-28T01:14:25;7.80;98.20
20526;DHT22;10421;49.142;9.232;2023-12-28T01:16:51;7.80;98.20
20526;DHT22;10421;49.142;9.232;2023-12-28T01:19:19;7.80;98.20
20526;DHT22;10421;49.142;9.232;2023-12-28T01:21:46;7.80;98.40
20526;DHT22;10421;49.142;9.232;2023-12-28T01:24:13;7.70;98.10
20526;DHT22;10421;49.142;9.232;2023-12-28T01:26:40;7.70;98.20
20526;DHT22;10421;49.142;9.232;2023-12-28T01:29:07;7.60;98.20
20526;DHT22;10421;49.142;9.232;2023-12-28T01:31:34;7.60;98.40
20526;DHT22;10421;49.142;9.232;2023-12-28T01:34:00;7.70;98.30
20526;DHT22;10421;49.142;9.232;2023-12-28T01:36:28;7.60;98.40
20526;DHT22;10421;49.142;9.232;2023-12-28T01:38:55;7.60;98.50
20526;DHT22;10421;49.142;9.232;2023-12-28T01:41:22;7.60;98.40
20526;DHT22;10421;49.142;9.232;2023-12-28T01:43:49;7.60;98.40
20526;DHT22;10421;49.142;9.232;2023-12-28T01:46:17;7.70;98.20
20526;DHT22;10421;49.142;9.232;2023-12-28T01:48:46;7.60;98.10
20526;DHT22;10421;49.142;9.232;2023-12-28T01:51:14;7.60;98.00
20526;DHT22;10421;49.142;9.232;2023-12-28T01:53:43;7.60;98.20
20526;DHT22;10421;49.142;9.232;2023-12-28T01:56:10;7.60;98.20
20526;DHT22;10421;49.142;9.232;2023-12-28T01:58:37;7.60;98.40
20526;DHT22;10421;49.142;9.232;2023-12-28T02:01:05;7.60;98.00
20526;DHT22;10421;49.142;9.232;2023-12-28T02:03:33;7.60;98.00
20526;DHT22;10421;49.142;9.232;2023-12-28T02:06:00;7.60;98.10
20526;DHT22;10421;49.142;9.232;2023-12-28T02:08:27;7.60;98.00
20526;DHT22;10421;49.142;9.232;2023-12-28T02:10:55;7.60;98.00
20526;DHT22;10421;49.142;9.232;2023-12-28T02:13:22;7.60;97.80
20526;DHT22;10421;49.142;9.232;2023-12-28T02:15:53;7.60;97.80
20526;DHT22;10421;49.142;9.232;2023-12-28T02:18:25;7.60;97.70
20526;DHT22;10421;49.142;9.232;2023-12-28T02:20:54;7.60;97.70
20526;DHT22;10421;49.142;9.232;2023-12-28T02:23:21;7.60;97.60
20526;DHT22;10421;49.142;9.232;2023-12-28T02:25:49;7.50;97.60
20526;DHT22;10421;49.142;9.232;2023-12-28T02:28:16;7.60;97.60
20526;DHT22;10421;49.142;9.232;2023-12-28T02:30:42;7.60;97.50
20526;DHT22;10421;49.142;9.232;2023-12-28T02:33:15;7.50;97.50
20526;DHT22;10421;49.142;9.232;2023-12-28T02:35:45;7.50;97.40
20526;DHT22;10421;49.142;9.232;2023-12-28T02:38:15;7.60;97.60
20526;DHT22;10421;49.142;9.232;2023-12-28T02:40:44;7.60;97.50
20526;DHT22;10421;49.142;9.232;2023-12-28T02:43:12;7.60;97.50
20526;DHT22;10421;49.142;9.232;2023-12-28T02:45:39;7.50;97.50
20526;DHT22;10421;49.142;9.232;2023-12-28T02:48:06;7.40;97.60
20526;DHT22;10421;49.142;9.232;2023-12-28T02:50:34;7.30;97.70
20526;DHT22;10421;49.142;9.232;2023-12-28T02:53:01;7.40;97.80
20526;DHT22;10421;49.142;9.232;2023-12-28T02:55:28;7.30;97.90
20526;DHT22;10421;49.142;9.232;2023-12-28T02:57:56;7.30;97.90
20526;DHT22;10421;49.142;9.232;2023-12-28T03:00:26;7.40;97.90
20526;DHT22;10421;49.142;9.232;2023-12-28T03:02:53;7.30;98.20
20526;DHT22;10421;49.142;9.232;2023-12-28T03:05:20;7.30;98.40
20526;DHT22;10421;49.142;9.232;2023-12-28T03:07:46;7.30;98.50
20526;DHT22;10421;49.142;9.232;2023-12-28T03:10:13;7.30;98.70
20526;DHT22;10421;49.142;9.232;2023-12-28T03:12:40;7.20;98.90
20526;DHT22;10421;49.142;9.232;2023-12-28T03:15:07;7.20;98.90
20526;DHT22;10421;49.142;9.232;2023-12-28T03:17:35;7.20;99.10
20526;DHT22;10421;49.142;9.232;2023-12-28T03:20:02;7.20;99.20
20526;DHT22;10421;49.142;9.232;2023-12-28T03:22:29;7.20;99.30
20526;DHT22;10421;49.142;9.232;2023-12-28T03:24:56;7.20;99.40
20526;DHT22;10421;49.142;9.232;2023-12-28T03:27:23;7.20;99.50
20526;DHT22;10421;49.142;9.232;2023-12-28T03:29:49;7.30;99.60
20526;DHT22;10421;49.142;9.232;2023-12-28T03:32:16;7.30;99.60
20526;DHT22;10421;49.142;9.232;2023-12-28T03:34:44;7.30;99.60
20526;DHT22;10421;49.142;9.232;2023-12-28T03:37:10;7.30;99.80
20526;DHT22;10421;49.142;9.232;2023-12-28T03:39:38;7.30;99.90
20526;DHT22;10421;49.142;9.232;2023-12-28T03:42:04;7.10;99.90
20526;DHT22;10421;49.142;9.232;2023-12-28T03:44:31;7.20;99.90
20526;DHT22;10421;49.142;9.232;2023-12-28T03:46:58;7.10;99.90
20526;DHT22;10421;49.142;9.232;2023-12-28T03:49:25;7.20;99.90
20526;DHT22;10421;49.142;9.232;2023-12-28T03:51:53;7.30;99.90
20526;DHT22;10421;49.142;9.232;2023-12-28T03:54:20;7.30;99.90
20526;DHT22;10421;49.142;9.232;2023-12-28T03:56:47;7.40;99.90
20526;DHT22;10421;49.142;9.232;2023-12-28T03:59:14;7.40;99.90
20526;DHT22;10421;49.142;9.232;2023-12-28T04:01:41;7.40;99.90
20526;DHT22;10421;49.142;9.232;2023-12-28T04:04:08;7.40;99.90
20526;DHT22;10421;49.142;9.232;2023-12-28T04:06:35;7.40;99.90
20526;DHT22;10421;49.142;9.232;2023-12-28T04:09:03;7.40;99.90
20526;DHT22;10421;49.142;9.232;2023-12-28T04:11:30;7.50;99.90
20526;DHT22;10421;49.142;9.232;2023-12-28T04:13:56;7.50;99.90
20526;DHT22;10421;49.142;9.232;2023-12-28T04:16:23;7.60;99.90
20526;DHT22;10421;49.142;9.232;2023-12-28T04:18:50;7.60;99.90
20526;DHT22;10421;49.142;9.232;2023-12-28T04:21:17;7.70;99.90
20526;DHT22;10421;49.142;9.232;2023-12-28T04:23:44;7.60;99.90
20526;DHT22;10421;49.142;9.232;2023-12-28T04:26:12;7.70;99.90
20526;DHT22;10421;49.142;9.232;2023-12-28T04:28:39;7.70;99.90
20526;DHT22;10421;49.142;9.232;2023-12-28T04:31:06;7.70;99.90
20526;DHT22;10421;49.142;9.232;2023-12-28T04:33:33;7.70;99.90
20526;DHT22;10421;49.142;9.232;2023-12-28T04:36:01;7.80;99.90
20526;DHT22;10421;49.142;9.232;2023-12-28T04:38:30;7.80;99.90
20526;DHT22;10421;49.142;9.232;2023-12-28T04:40:57;7.80;99.90
20526;DHT22;10421;49.142;9.232;2023-12-28T04:43:26;7.80;99.90
20526;DHT22;10421;49.142;9.232;2023-12-28T04:45:52;7.90;99.90
20526;DHT22;10421;49.142;9.232;2023-12-28T04:48:19;7.90;99.90
20526;DHT22;10421;49.142;9.232;2023-12-28T04:50:49;7.90;99.90
20526;DHT22;10421;49.142;9.232;2023-12-28T04:53:16;7.80;99.90
20526;DHT22;10421;49.142;9.232;2023-12-28T04:55:42;7.90;99.90
20526;DHT22;10421;49.142;9.232;2023-12-28T04:58:10;7.90;99.90
20526;DHT22;10421;49.142;9.232;2023-12-28T05:00:38;7.80;99.90
20526;DHT22;10421;49.142;9.232;2023-12-28T05:03:05;7.70;99.90
20526;DHT22;10421;49.142;9.232;2023-12-28T05:05:32;7.60;99.90
20526;DHT22;10421;49.142;9.232;2023-12-28T05:07:59;7.70;99.90
20526;DHT22;10421;49.142;9.232;2023-12-28T05:10:26;7.70;99.90
20526;DHT22;10421;49.142;9.232;2023-12-28T05:12:52;7.40;99.90
20526;DHT22;10421;49.142;9.232;2023-12-28T05:15:19;7.40;99.90
20526;DHT22;10421;49.142;9.232;2023-12-28T05:17:47;7.50;99.90
20526;DHT22;10421;49.142;9.232;2023-12-28T05:20:16;7.50;99.90
20526;DHT22;10421;49.142;9.232;2023-12-28T05:22:43;7.50;99.90
20526;DHT22;10421;49.142;9.232;2023-12-28T05:25:09;7.60;99.90
20526;DHT22;10421;49.142;9.232;2023-12-28T05:27:36;7.60;99.90
20526;DHT22;10421;49.142;9.232;2023-12-28T05:30:04;7.60;99.90
20526;DHT22;10421;49.142;9.232;2023-12-28T05:32:31;7.60;99.90
20526;DHT22;10421;49.142;9.232;2023-12-28T05:34:59;7.70;99.90
20526;DHT22;10421;49.142;9.232;2023-12-28T05:37:25;7.70;99.90
20526;DHT22;10421;49.142;9.232;2023-12-28T05:39:52;7.70;99.90
20526;DHT22;10421;49.142;9.232;2023-12-28T05:42:19;7.70;99.90
20526;DHT22;10421;49.142;9.232;2023-12-28T05:44:45;7.80;99.90
20526;DHT22;10421;49.142;9.232;2023-12-28T05:47:12;7.90;99.90
20526;DHT22;10421;49.142;9.232;2023-12-28T05:49:40;7.90;99.90
20526;DHT22;10421;49.142;9.232;2023-12-28T05:52:09;8.00;99.90
20526;DHT22;10421;49.142;9.232;2023-12-28T05:54:35;8.00;99.90
20526;DHT22;10421;49.142;9.232;2023-12-28T05:57:01;8.00;99.90
20526;DHT22;10421;49.142;9.232;2023-12-28T05:59:28;8.10;99.90
20526;DHT22;10421;49.142;9.232;2023-12-28T06:01:55;8.10;99.90
20526;DHT22;10421;49.142;9.232;2023-12-28T06:04:21;8.20;99.90
20526;DHT22;10421;49.142;9.232;2023-12-28T06:06:48;8.20;99.90
20526;DHT22;10421;49.142;9.232;2023-12-28T06:09:16;8.20;99.90
20526;DHT22;10421;49.142;9.232;2023-12-28T06:11:43;8.20;99.90
20526;DHT22;10421;49.142;9.232;2023-12-28T06:14:09;8.30;99.90
20526;DHT22;10421;49.142;9.232;2023-12-28T06:16:36;8.20;99.90
20526;DHT22;10421;49.142;9.232;2023-12-28T06:19:03;8.30;99.90
20526;DHT22;10421;49.142;9.232;2023-12-28T06:21:29;8.40;99.90
20526;DHT22;10421;49.142;9.232;2023-12-28T06:23:56;8.40;99.90
20526;DHT22;10421;49.142;9.232;2023-12-28T06:26:24;8.50;99.90
20526;DHT22;10421;49.142;9.232;2023-12-28T06:28:51;8.50;99.90
20526;DHT22;10421;49.142;9.232;2023-12-28T06:31:18;8.60;99.90
20526;DHT22;10421;49.142;9.232;2023-12-28T06:33:44;8.60;99.90
20526;DHT22;10421;49.142;9.232;2023-12-28T06:36:12;8.70;99.90
20526;DHT22;10421;49.142;9.232;2023-12-28T06:38:38;8.70;99.90
20526;DHT22;10421;49.142;9.232;2023-12-28T06:41:10;8.80;99.90
20526;DHT22;10421;49.142;9.232;2023-12-28T06:43:39;8.80;99.90
20526;DHT22;10421;49.142;9.232;2023-12-28T06:46:05;8.80;99.90
20526;DHT22;10421;49.142;9.232;2023-12-28T06:48:32;8.80;99.90
20526;DHT22;10421;49.142;9.232;2023-12-28T06:50:59;8.80;99.90
20526;DHT22;10421;49.142;9.232;2023-12-28T06:53:26;8.80;99.90
20526;DHT22;10421;49.142;9.232;2023-12-28T06:55:53;8.90;99.90
20526;DHT22;10421;49.142;9.232;2023-12-28T06:58:19;8.90;99.90
20526;DHT22;10421;49.142;9.232;2023-12-28T07:00:47;9.00;99.90
20526;DHT22;10421;49.142;9.232;2023-12-28T07:03:14;9.00;99.90
20526;DHT22;10421;49.142;9.232;2023-12-28T07:05:41;9.10;99.90
20526;DHT22;10421;49.142;9.232;2023-12-28T07:08:08;9.20;99.90
20526;DHT22;10421;49.142;9.232;2023-12-28T07:10:34;9.20;99.90
20526;DHT22;10421;49.142;9.232;2023-12-28T07:13:01;9.30;99.90
20526;DHT22;10421;49.142;9.232;2023-12-28T07:15:28;9.40;99.90
20526;DHT22;10421;49.142;9.232;2023-12-28T07:17:56;9.40;99.90
20526;DHT22;10421;49.142;9.232;2023-12-28T07:20:23;9.40;99.90
20526;DHT22;10421;49.142;9.232;2023-12-28T07:22:50;9.50;99.90
20526;DHT22;10421;49.142;9.232;2023-12-28T07:25:16;9.50;99.90
20526;DHT22;10421;49.142;9.232;2023-12-28T07:27:43;9.50;99.90
20526;DHT22;10421;49.142;9.232;2023-12-28T07:30:11;9.60;99.90
20526;DHT22;10421;49.142;9.232;2023-12-28T07:32:38;9.60;99.90
20526;DHT22;10421;49.142;9.232;2023-12-28T07:35:06;9.60;99.90
20526;DHT22;10421;49.142;9.232;2023-12-28T07:37:33;9.60;99.90
20526;DHT22;10421;49.142;9.232;2023-12-28T07:40:00;9.70;99.90
20526;DHT22;10421;49.142;9.232;2023-12-28T07:42:28;9.70;99.90
20526;DHT22;10421;49.142;9.232;2023-12-28T07:44:55;9.70;99.90
20526;DHT22;10421;49.142;9.232;2023-12-28T07:47:21;9.70;99.90
20526;DHT22;10421;49.142;9.232;2023-12-28T07:49:48;9.70;99.90
20526;DHT22;10421;49.142;9.232;2023-12-28T07:52:16;9.70;99.90
20526;DHT22;10421;49.142;9.232;2023-12-28T07:54:43;9.70;99.90
20526;DHT22;10421;49.142;9.232;2023-12-28T07:57:10;9.70;99.90
20526;DHT22;10421;49.142;9.232;2023-12-28T07:59:35;9.80;99.90
20526;DHT22;10421;49.142;9.232;2023-12-28T08:02:02;9.80;99.90
20526;DHT22;10421;49.142;9.232;2023-12-28T08:04:29;9.80;99.90
20526;DHT22;10421;49.142;9.232;2023-12-28T08:06:56;9.80;99.90
20526;DHT22;10421;49.142;9.232;2023-12-28T08:09:25;9.90;99.90
20526;DHT22;10421;49.142;9.232;2023-12-28T08:11:52;9.90;99.90
20526;DHT22;10421;49.142;9.232;2023-12-28T08:14:18;9.90;99.90
20526;DHT22;10421;49.142;9.232;2023-12-28T08:16:45;9.90;99.90
20526;DHT22;10421;49.142;9.232;2023-12-28T08:19:12;10.00;99.90
20526;DHT22;10421;49.142;9.232;2023-12-28T08:21:38;10.00;99.90
20526;DHT22;10421;49.142;9.232;2023-12-28T08:24:05;10.00;99.90
20526;DHT22;10421;49.142;9.232;2023-12-28T08:26:33;10.00;99.90
20526;DHT22;10421;49.142;9.232;2023-12-28T08:29:00;10.10;99.90
20526;DHT22;10421;49.142;9.232;2023-12-28T08:31:27;10.00;99.90
20526;DHT22;10421;49.142;9.232;2023-12-28T08:33:55;10.10;99.90
20526;DHT22;10421;49.142;9.232;2023-12-28T08:36:22;10.20;99.90
20526;DHT22;10421;49.142;9.232;2023-12-28T08:38:48;10.10;99.90
20526;DHT22;10421;49.142;9.232;2023-12-28T08:41:18;10.20;99.90
20526;DHT22;10421;49.142;9.232;2023-12-28T08:43:47;10.20;99.90
20526;DHT22;10421;49.142;9.232;2023-12-28T08:46:14;10.30;99.90
20526;DHT22;10421;49.142;9.232;2023-12-28T08:48:41;10.30;99.90
20526;DHT22;10421;49.142;9.232;2023-12-28T08:51:09;10.30;99.90
20526;DHT22;10421;49.142;9.232;2023-12-28T08:53:36;10.30;99.90
20526;DHT22;10421;49.142;9.232;2023-12-28T08:56:12;10.40;99.90
20526;DHT22;10421;49.142;9.232;2023-12-28T08:58:38;10.40;99.90
20526;DHT22;10421;49.142;9.232;2023-12-28T09:01:06;10.40;99.90
20526;DHT22;10421;49.142;9.232;2023-12-28T09:03:33;10.40;99.90
20526;DHT22;10421;49.142;9.232;2023-12-28T09:06:00;10.50;99.90
20526;DHT22;10421;49.142;9.232;2023-12-28T09:08:26;10.50;99.90
20526;DHT22;10421;49.142;9.232;2023-12-28T09:10:53;10.50;99.90
20526;DHT22;10421;49.142;9.232;2023-12-28T09:13:20;10.50;99.90
20526;DHT22;10421;49.142;9.232;2023-12-28T09:15:47;10.60;99.90
20526;DHT22;10421;49.142;9.232;2023-12-28T09:18:15;10.60;99.90
20526;DHT22;10421;49.142;9.232;2023-12-28T09:20:41;10.60;99.90
20526;DHT22;10421;49.142;9.232;2023-12-28T09:23:08;10.60;99.90
20526;DHT22;10421;49.142;9.232;2023-12-28T09:25:35;10.70;99.90
20526;DHT22;10421;49.142;9.232;2023-12-28T09:28:04;10.70;99.90
20526;DHT22;10421;49.142;9.232;2023-12-28T09:30:31;10.70;99.90
20526;DHT22;10421;49.142;9.232;2023-12-28T09:32:57;10.70;99.90
20526;DHT22;10421;49.142;9.232;2023-12-28T09:35:25;10.80;99.90
20526;DHT22;10421;49.142;9.232;2023-12-28T09:37:52;10.80;99.90
20526;DHT22;10421;49.142;9.232;2023-12-28T09:40:19;10.80;99.90
20526;DHT22;10421;49.142;9.232;2023-12-28T09:42:51;10.80;99.90
20526;DHT22;10421;49.142;9.232;2023-12-28T09:45:20;10.80;99.90
20526;DHT22;10421;49.142;9.232;2023-12-28T09:47:47;10.80;99.90
20526;DHT22;10421;49.142;9.232;2023-12-28T09:50:18;10.80;99.90
20526;DHT22;10421;49.142;9.232;2023-12-28T09:52:46;10.80;99.90
20526;DHT22;10421;49.142;9.232;2023-12-28T09:55:13;10.90;99.90
20526;DHT22;10421;49.142;9.232;2023-12-28T09:57:40;10.90;99.90
20526;DHT22;10421;49.142;9.232;2023-12-28T10:00:08;10.90;99.90
20526;DHT22;10421;49.142;9.232;2023-12-28T10:02:38;10.90;99.90
20526;DHT22;10421;49.142;9.232;2023-12-28T10:05:06;10.90;99.90
20526;DHT22;10421;49.142;9.232;2023-12-28T10:07:35;11.00;99.90
20526;DHT22;10421;49.142;9.232;2023-12-28T10:10:08;11.00;99.90
20526;DHT22;10421;49.142;9.232;2023-12-28T10:12:35;10.90;99.90
20526;DHT22;10421;49.142;9.232;2023-12-28T10:15:03;10.90;99.90
20526;DHT22;10421;49.142;9.232;2023-12-28T10:17:31;10.70;99.90
20526;DHT22;10421;49.142;9.232;2023-12-28T10:19:58;10.80;99.90
20526;DHT22;10421;49.142;9.232;2023-12-28T10:22:29;10.90;99.90
20526;DHT22;10421;49.142;9.232;2023-12-28T10:24:56;11.10;99.90
20526;DHT22;10421;49.142;9.232;2023-12-28T10:27:26;10.90;99.90
20526;DHT22;10421;49.142;9.232;2023-12-28T10:29:54;10.80;99.90
20526;DHT22;10421;49.142;9.232;2023-12-28T10:32:21;10.90;99.90
20526;DHT22;10421;49.142;9.232;2023-12-28T10:34:51;11.00;99.90
20526;DHT22;10421;49.142;9.232;2023-12-28T10:37:19;11.00;99.90
20526;DHT22;10421;49.142;9.232;2023-12-28T10:39:46;11.00;99.90
20526;DHT22;10421;49.142;9.232;2023-12-28T10:42:17;11.20;99.90
20526;DHT22;10421;49.142;9.232;2023-12-28T10:44:49;11.20;99.90
20526;DHT22;10421;49.142;9.232;2023-12-28T10:47:19;11.30;99.90
20526;DHT22;10421;49.142;9.232;2023-12-28T10:49:48;11.40;99.90
20526;DHT22;10421;49.142;9.232;2023-12-28T10:52:21;11.40;99.90
20526;DHT22;10421;49.142;9.232;2023-12-28T10:54:57;11.40;99.90
20526;DHT22;10421;49.142;9.232;2023-12-28T10:57:29;11.50;99.90
20526;DHT22;10421;49.142;9.232;2023-12-28T11:00:07;11.60;99.90
20526;DHT22;10421;49.142;9.232;2023-12-28T11:02:38;11.60;99.90
20526;DHT22;10421;49.142;9.232;2023-12-28T11:05:07;11.50;99.90
20526;DHT22;10421;49.142;9.232;2023-12-28T11:07:36;11.40;99.90
20526;DHT22;10421;49.142;9.232;2023-12-28T11:10:05;11.40;99.90
20526;DHT22;10421;49.142;9.232;2023-12-28T11:12:32;11.40;99.90
20526;DHT22;10421;49.142;9.232;2023-12-28T11:15:03;11.60;99.90
20526;DHT22;10421;49.142;9.232;2023-12-28T11:17:31;11.70;99.90
20526;DHT22;10421;49.142;9.232;2023-12-28T11:19:58;11.90;99.90
20526;DHT22;10421;49.142;9.232;2023-12-28T11:22:26;11.90;99.90
20526;DHT22;10421;49.142;9.232;2023-12-28T11:24:53;11.90;99.90
20526;DHT22;10421;49.142;9.232;2023-12-28T11:27:20;12.00;99.90
20526;DHT22;10421;49.142;9.232;2023-12-28T11:29:48;12.10;99.90
20526;DHT22;10421;49.142;9.232;2023-12-28T11:32:16;11.80;99.90
20526;DHT22;10421;49.142;9.232;2023-12-28T11:34:43;12.00;99.90
20526;DHT22;10421;49.142;9.232;2023-12-28T11:37:13;12.10;99.90
20526;DHT22;10421;49.142;9.232;2023-12-28T11:39:44;12.00;99.90
20526;DHT22;10421;49.142;9.232;2023-12-28T11:42:11;12.20;99.90
20526;DHT22;10421;49.142;9.232;2023-12-28T11:44:39;12.30;99.90
20526;DHT22;10421;49.142;9.232;2023-12-28T11:47:13;12.30;99.90
20526;DHT22;10421;49.142;9.232;2023-12-28T11:49:42;12.20;99.90
20526;DHT22;10421;49.142;9.232;2023-12-28T11:52:22;12.20;99.90
20526;DHT22;10421;49.142;9.232;2023-12-28T11:54:50;12.10;99.90
20526;DHT22;10421;49.142;9.232;2023-12-28T11:57:16;12.10;99.90
20526;DHT22;10421;49.142;9.232;2023-12-28T11:59:43;12.20;99.90
20526;DHT22;10421;49.142;9.232;2023-12-28T12:02:10;12.20;99.90
20526;DHT22;10421;49.142;9.232;2023-12-28T12:04:37;12.10;99.90
20526;DHT22;10421;49.142;9.232;2023-12-28T12:07:05;12.00;99.90
20526;DHT22;10421;49.142;9.232;2023-12-28T12:09:32;11.90;99.90
20526;DHT22;10421;49.142;9.232;2023-12-28T12:12:00;12.00;99.90
20526;DHT22;10421;49.142;9.232;2023-12-28T12:14:27;12.00;99.90
20526;DHT22;10421;49.142;9.232;2023-12-28T12:16:55;12.00;99.90
20526;DHT22;10421;49.142;9.232;2023-12-28T12:19:22;12.10;99.90
20526;DHT22;10421;49.142;9.232;2023-12-28T12:21:51;12.10;99.90
20526;DHT22;10421;49.142;9.232;2023-12-28T12:24:20;12.20;99.90
20526;DHT22;10421;49.142;9.232;2023-12-28T12:26:47;12.20;99.90
20526;DHT22;10421;49.142;9.232;2023-12-28T12:29:13;12.20;99.90
20526;DHT22;10421;49.142;9.232;2023-12-28T12:31:41;12.30;99.90
20526;DHT22;10421;49.142;9.232;2023-12-28T12:34:09;12.30;99.90
20526;DHT22;10421;49.142;9.232;2023-12-28T12:36:36;12.20;99.90
20526;DHT22;10421;49.142;9.232;2023-12-28T12:39:03;12.40;99.90
20526;DHT22;10421;49.142;9.232;2023-12-28T12:41:32;12.30;99.90
20526;DHT22;10421;49.142;9.232;2023-12-28T12:43:59;12.30;99.90
20526;DHT22;10421;49.142;9.232;2023-12-28T12:46:27;12.30;99.90
20526;DHT22;10421;49.142;9.232;2023-12-28T12:48:55;12.10;99.90
20526;DHT22;10421;49.142;9.232;2023-12-28T12:51:21;12.10;99.90
20526;DHT22;10421;49.142;9.232;2023-12-28T12:53:48;12.00;99.90
20526;DHT22;10421;49.142;9.232;2023-12-28T12:56:15;12.00;99.90
20526;DHT22;10421;49.142;9.232;2023-12-28T12:58:45;12.00;99.90
20526;DHT22;10421;49.142;9.232;2023-12-28T13:01:12;12.00;99.90
20526;DHT22;10421;49.142;9.232;2023-12-28T13:03:40;12.10;99.90
20526;DHT22;10421;49.142;9.232;2023-12-28T13:06:07;12.10;99.90
20526;DHT22;10421;49.142;9.232;2023-12-28T13:08:33;12.10;99.90
20526;DHT22;10421;49.142;9.232;2023-12-28T13:11:00;12.00;99.90
20526;DHT22;10421;49.142;9.232;2023-12-28T13:13:27;12.00;99.90
20526;DHT22;10421;49.142;9.232;2023-12-28T13:15:55;11.90;99.90
20526;DHT22;10421;49.142;9.232;2023-12-28T13:18:22;11.70;99.90
20526;DHT22;10421;49.142;9.232;2023-12-28T13:20:48;11.70;99.90
20526;DHT22;10421;49.142;9.232;2023-12-28T13:23:15;11.60;99.90
20526;DHT22;10421;49.142;9.232;2023-12-28T13:25:42;11.60;99.90
20526;DHT22;10421;49.142;9.232;2023-12-28T13:28:10;11.70;99.90
20526;DHT22;10421;49.142;9.232;2023-12-28T13:30:37;11.70;99.90
20526;DHT22;10421;49.142;9.232;2023-12-28T13:33:06;11.70;99.90
20526;DHT22;10421;49.142;9.232;2023-12-28T13:35:32;11.60;99.90
20526;DHT22;10421;49.142;9.232;2023-12-28T13:37:59;11.40;99.90
20526;DHT22;10421;49.142;9.232;2023-12-28T13:40:26;11.30;99.90
20526;DHT22;10421;49.142;9.232;2023-12-28T13:42:53;11.30;99.90
20526;DHT22;10421;49.142;9.232;2023-12-28T13:45:20;11.30;99.90
20526;DHT22;10421;49.142;9.232;2023-12-28T13:47:46;11.30;99.90
20526;DHT22;10421;49.142;9.232;2023-12-28T13:50:14;11.30;99.90
20526;DHT22;10421;49.142;9.232;2023-12-28T13:52:41;11.40;99.90
20526;DHT22;10421;49.142;9.232;2023-12-28T13:55:08;11.40;99.90
20526;DHT22;10421;49.142;9.232;2023-12-28T13:57:35;11.20;99.90
20526;DHT22;10421;49.142;9.232;2023-12-28T14:00:02;11.30;99.90
20526;DHT22;10421;49.142;9.232;2023-12-28T14:02:29;11.20;99.90
20526;DHT22;10421;49.142;9.232;2023-12-28T14:04:56;11.30;99.90
20526;DHT22;10421;49.142;9.232;2023-12-28T14:07:24;11.30;99.90
20526;DHT22;10421;49.142;9.232;2023-12-28T14:09:52;11.40;99.90
20526;DHT22;10421;49.142;9.232;2023-12-28T14:12:18;11.30;99.90
20526;DHT22;10421;49.142;9.232;2023-12-28T14:14:45;11.30;99.90
20526;DHT22;10421;49.142;9.232;2023-12-28T14:17:12;11.30;99.90
20526;DHT22;10421;49.142;9.232;2023-12-28T14:19:40;11.20;99.90
20526;DHT22;10421;49.142;9.232;2023-12-28T14:22:08;11.10;99.90
20526;DHT22;10421;49.142;9.232;2023-12-28T14:24:36;11.20;99.90
20526;DHT22;10421;49.142;9.232;2023-12-28T14:27:04;11.10;99.90
20526;DHT22;10421;49.142;9.232;2023-12-28T14:29:31;11.20;99.90
20526;DHT22;10421;49.142;9.232;2023-12-28T14:31:59;11.20;99.90
20526;DHT22;10421;49.142;9.232;2023-12-28T14:34:27;11.20;99.90
20526;DHT22;10421;49.142;9.232;2023-12-28T14:36:56;11.30;99.90
20526;DHT22;10421;49.142;9.232;2023-12-28T14:39:23;11.30;99.90
20526;DHT22;10421;49.142;9.232;2023-12-28T14:41:51;11.30;99.90
20526;DHT22;10421;49.142;9.232;2023-12-28T14:44:18;11.20;99.90
20526;DHT22;10421;49.142;9.232;2023-12-28T14:46:45;11.30;99.90
20526;DHT22;10421;49.142;9.232;2023-12-28T14:49:11;11.30;99.90
20526;DHT22;10421;49.142;9.232;2023-12-28T14:51:38;11.40;99.90
20526;DHT22;10421;49.142;9.232;2023-12-28T14:54:05;11.40;99.90
20526;DHT22;10421;49.142;9.232;2023-12-28T14:56:32;11.40;99.90
20526;DHT22;10421;49.142;9.232;2023-12-28T14:59:00;11.60;99.90
20526;DHT22;10421;49.142;9.232;2023-12-28T15:01:26;11.60;99.90
20526;DHT22;10421;49.142;9.232;2023-12-28T15:03:53;11.50;99.90
20526;DHT22;10421;49.142;9.232;2023-12-28T15:06:20;11.50;99.90
20526;DHT22;10421;49.142;9.232;2023-12-28T15:08:46;11.60;99.90
20526;DHT22;10421;49.142;9.232;2023-12-28T15:11:13;11.70;99.90
20526;DHT22;10421;49.142;9.232;2023-12-28T15:13:41;11.90;99.90
20526;DHT22;10421;49.142;9.232;2023-12-28T15:16:10;12.00;99.90
20526;DHT22;10421;49.142;9.232;2023-12-28T15:18:37;12.00;99.90
20526;DHT22;10421;49.142;9.232;2023-12-28T15:21:06;12.10;99.90
20526;DHT22;10421;49.142;9.232;2023-12-28T15:23:33;12.10;99.90
20526;DHT22;10421;49.142;9.232;2023-12-28T15:26:00;12.30;99.90
20526;DHT22;10421;49.142;9.232;2023-12-28T15:28:27;12.20;99.90
20526;DHT22;10421;49.142;9.232;2023-12-28T15:30:54;12.30;99.90
20526;DHT22;10421;49.142;9.232;2023-12-28T15:33:22;12.40;99.90
20526;DHT22;10421;49.142;9.232;2023-12-28T15:35:49;12.40;99.90
20526;DHT22;10421;49.142;9.232;2023-12-28T15:38:16;12.50;99.90
20526;DHT22;10421;49.142;9.232;2023-12-28T15:40:45;12.50;99.90